Flight Track Log - Related Links

Times and Time Zones

All times are in EDT time to prevent confusion due to time zone crossing. See the SWA1044 flight status page for this flight to view local times or setup timezone preferences in your user account.

Time Position Orientation Groundspeed Altitude Reporting Facility
EDT Latitude Longitude Course Direction KTS MPH feet Rate Location/Type
Sat 02:52:12 PM 27.9667 -82.5500 196° South 166 191 1,000  Level Tampa TRACON
Sat 02:53:00 PM 27.9167 -82.5667 196° South 204 235 2,200 2,167 Climbing Tampa TRACON
Sat 02:54:00 PM 27.9167 -82.6333 270° West 218 251 4,900 2,900 Climbing Tampa TRACON
Sat 02:55:00 PM 27.9833 -82.6500 348° North 287 330 8,000 2,950 Climbing Tampa TRACON
Sat 02:56:00 PM 28.0667 -82.6333 10° North 314 361 10,800 1,746 Climbing Tampa TRACON
Sat 02:57:14 PM 28.1892 -82.6122 North 340 391 11,900 537 Climbing Jacksonville Center
Sat 02:58:14 PM 28.2914 -82.5956 North 358 412 12,000 1,600 Climbing Jacksonville Center
Sat 02:59:14 PM 28.3936 -82.5833 North 363 418 15,100 2,850 Climbing Jacksonville Center
Sat 03:00:14 PM 28.4958 -82.5856 359° North 363 418 17,700 2,700 Climbing Jacksonville Center
Sat 03:01:14 PM 28.6067 -82.5875 359° North 368 423 20,500 2,550 Climbing Jacksonville Center
Sat 03:02:14 PM 28.7192 -82.5967 356° North 392 451 22,800 2,200 Climbing Jacksonville Center
Sat 03:03:14 PM 28.8361 -82.6128 353° North 404 465 24,900 2,050 Climbing Jacksonville Center
Sat 03:04:14 PM 28.9572 -82.6292 353° North 423 487 26,900 550 Climbing Jacksonville Center
Sat 03:05:14 PM 29.0783 -82.6456 353° North 433 498 26,000 -450 Descending Jacksonville Center
Sat 03:06:14 PM 29.1994 -82.6619 353° North 433 498 26,000  Level Jacksonville Center
Sat 03:07:14 PM 29.3228 -82.6806 353° North 433 498 26,000  Level Jacksonville Center
Sat 03:08:14 PM 29.4439 -82.6922 355° North 433 498 26,000 150 Level Jacksonville Center
Sat 03:09:14 PM 29.5567 -82.6944 359° North 442 509 26,300 500 Climbing Jacksonville Center
Sat 03:10:14 PM 29.6797 -82.6917 North 437 503 27,000 350 Climbing Jacksonville Center
Sat 03:11:14 PM 29.8050 -82.6914 360° North 437 503 27,000  Level Jacksonville Center
Sat 03:12:14 PM 29.9281 -82.6911 360° North 437 503 27,000  Level Jacksonville Center
Sat 03:13:14 PM 30.0492 -82.6886 North 437 503 27,000  Level Jacksonville Center
Sat 03:14:14 PM 30.1744 -82.6858 North 437 503 27,000  Level Jacksonville Center
Sat 03:15:14 PM 30.2997 -82.6881 359° North 437 503 27,000  Level Jacksonville Center
Sat 03:16:14 PM 30.4208 -82.6853 North 437 503 27,000  Level Jacksonville Center
Sat 03:17:14 PM 30.5461 -82.6658 North 443 510 27,000 -50 Level Jacksonville Center
Sat 03:18:14 PM 30.6711 -82.5981 25° Northeast 443 510 26,900  Descending Jacksonville Center
Sat 03:19:14 PM 30.7839 -82.5178 31° Northeast 449 517 27,000 50 Climbing Jacksonville Center
Sat 03:20:14 PM 30.9069 -82.4833 14° North 449 517 27,000  Level Jacksonville Center
Sat 03:21:14 PM 31.0278 -82.4367 18° North 449 517 27,000  Level Jacksonville Center
Sat 03:22:14 PM 31.1486 -82.3781 23° Northeast 460 529 27,000  Level Jacksonville Center
Sat 03:23:14 PM 31.2675 -82.3189 23° Northeast 465 535 27,000  Level Jacksonville Center
Sat 03:24:14 PM 31.3903 -82.2575 23° Northeast 465 535 27,000  Level Jacksonville Center
Sat 03:25:14 PM 31.5092 -82.2006 22° Northeast 470 541 27,000  Level Jacksonville Center
Sat 03:26:14 PM 31.6278 -82.1386 24° Northeast 470 541 27,000  Level Jacksonville Center
Sat 03:27:14 PM 31.7506 -82.0789 22° Northeast 463 533 27,000  Level Jacksonville Center
Sat 03:28:14 PM 31.8586 -82.0242 23° Northeast 463 533 27,000  Level Jacksonville Center
Sat 03:29:14 PM 31.9897 -81.9519 25° Northeast 463 533 27,000  Level Jacksonville Center
Sat 03:30:14 PM 32.0892 -81.8578 39° Northeast 465 535 27,000  Level Jacksonville Center
Sat 03:31:14 PM 32.1803 -81.7683 40° Northeast 465 535 27,000  Level Jacksonville Center
Sat 03:32:14 PM 32.2919 -81.6564 40° Northeast 470 541 27,000  Level Jacksonville Center
Sat 03:33:14 PM 32.3831 -81.5642 41° Northeast 470 541 27,000  Level Jacksonville Center
Sat 03:34:14 PM 32.4944 -81.4542 40° Northeast 470 541 27,000  Level Jacksonville Center
Sat 03:35:14 PM 32.5956 -81.3539 40° Northeast 470 541 27,000  Level Jacksonville Center
Sat 03:36:14 PM 32.6761 -81.2711 41° Northeast 475 547 27,000  Level Jacksonville Center
Sat 03:37:14 PM 32.7850 -81.1581 41° Northeast 475 547 27,000  Level Jacksonville Center
Sat 03:38:14 PM 32.8858 -81.0544 41° Northeast 475 547 27,000  Level Jacksonville Center
Sat 03:39:14 PM 32.9867 -80.9536 40° Northeast 475 547 27,000  Level Jacksonville Center
Sat 03:40:14 PM 33.0872 -80.8497 41° Northeast 475 547 27,000  Level Jacksonville Center
Sat 03:41:14 PM 33.1858 -80.7506 40° Northeast 470 541 27,000  Level Jacksonville Center
Sat 03:42:14 PM 33.2864 -80.6464 41° Northeast 470 541 27,000  Level Jacksonville Center
Sat 03:43:14 PM 33.3867 -80.5419 41° Northeast 470 541 27,000  Level Jacksonville Center
Sat 03:44:15 PM 33.4828 -80.4347 43° Northeast 475 547 27,000  Level Jacksonville Center
Sat 03:45:14 PM 33.5594 -80.3056 55° Northeast 470 541 27,000  Level Jacksonville Center
Sat 03:46:14 PM 33.6319 -80.1761 56° Northeast 470 541 27,000  Level Jacksonville Center
Sat 03:47:15 PM 33.7083 -80.0439 55° Northeast 470 541 27,000  Level Jacksonville Center
Sat 03:48:14 PM 33.7803 -79.9117 57° Northeast 470 541 27,000  Level Jacksonville Center
Sat 03:49:14 PM 33.8544 -79.7817 55° Northeast 470 541 27,000  Level Jacksonville Center
Sat 03:50:14 PM 33.9261 -79.6514 56° Northeast 470 541 27,000  Level Jacksonville Center
Sat 03:51:14 PM 34.0042 -79.5158 55° Northeast 465 535 27,000  Level Jacksonville Center
Sat 03:53:35 PM 34.1583 -79.2283 57° Northeast 463 533 27,000  Level Washington Center
Sat 03:54:36 PM 34.2331 -79.0961 56° Northeast 463 533 27,000 403 Level Washington Center
Sat 03:55:34 PM 34.3283 -78.9794 45° Northeast 473 544 27,800 1,261 Climbing Washington Center
Sat 03:56:35 PM 34.4497 -78.8886 32° Northeast 480 552 29,500 1,785 Climbing Washington Center
Sat 03:57:35 PM 34.5672 -78.7950 33° Northeast 495 570 31,400 2,033 Climbing Washington Center
Sat 03:58:36 PM 34.6992 -78.6967 31° Northeast 506 582 33,600 1,866 Climbing Washington Center
Sat 03:59:34 PM 34.8033 -78.6172 32° Northeast 501 577 35,100 1,475 Climbing Washington Center
Sat 04:00:34 PM 34.9161 -78.5328 32° Northeast 491 565 36,500 942 Climbing Washington Center
Sat 04:01:35 PM 35.0436 -78.4308 33° Northeast 491 565 37,000 1,131 Climbing Washington Center
Sat 04:02:36 PM 35.1564 -78.3433 32° Northeast 486 559 38,800 992 Climbing Washington Center
Sat 04:03:36 PM 35.2711 -78.2531 33° Northeast 486 559 39,000 102 Climbing Washington Center
Sat 04:04:34 PM 35.3856 -78.1653 32° Northeast 486 559 39,000  Level Washington Center
Sat 04:05:36 PM 35.5003 -78.0744 33° Northeast 486 559 39,000  Level Washington Center
Sat 04:06:36 PM 35.6167 -77.9886 31° Northeast 491 565 39,000  Level Washington Center
Sat 04:07:34 PM 35.7311 -77.8975 33° Northeast 486 559 39,000  Level Washington Center
Sat 04:08:35 PM 35.8456 -77.8086 32° Northeast 486 559 39,000  Level Washington Center
Sat 04:09:35 PM 35.9619 -77.7167 33° Northeast 491 565 39,000  Level Washington Center
Sat 04:10:35 PM 36.0742 -77.6169 36° Northeast 491 565 39,000  Level Washington Center
Sat 04:11:36 PM 36.1867 -77.5144 36° Northeast 496 571 39,000  Level Washington Center
Sat 04:12:34 PM 36.2778 -77.4239 39° Northeast 491 565 39,000  Level Washington Center
Sat 04:13:34 PM 36.3878 -77.3206 37° Northeast 486 559 39,000  Level Washington Center
Sat 04:14:35 PM 36.4997 -77.2172 37° Northeast 492 566 39,000  Level Washington Center
Sat 04:15:35 PM 36.6075 -77.1133 38° Northeast 492 566 39,000  Level Washington Center
Sat 04:16:36 PM 36.7278 -76.9964 38° Northeast 500 575 39,000  Level Washington Center
Sat 04:17:34 PM 36.8436 -76.8947 35° Northeast 495 570 39,000  Level Washington Center
Sat 04:18:34 PM 36.9553 -76.7953 35° Northeast 495 570 39,000  Level Washington Center
Sat 04:19:35 PM 37.0669 -76.6931 36° Northeast 495 570 39,000  Level Washington Center
Sat 04:20:36 PM 37.1783 -76.5903 36° Northeast 495 570 39,000  Level Washington Center
Sat 04:21:36 PM 37.2917 -76.4847 37° Northeast 495 570 39,000  Level Washington Center
Sat 04:22:34 PM 37.4072 -76.3814 35° Northeast 500 575 39,000  Level Washington Center
Sat 04:23:35 PM 37.5122 -76.2883 35° Northeast 500 575 39,000  Level Washington Center
Sat 04:24:35 PM 37.6233 -76.1844 37° Northeast 500 575 39,000  Level Washington Center
Sat 04:25:35 PM 37.7406 -76.0828 34° Northeast 500 575 39,000  Level Washington Center
Sat 04:26:34 PM 37.8514 -75.9706 39° Northeast 505 581 39,000  Level Washington Center
Sat 04:27:36 PM 37.9664 -75.8658 36° Northeast 512 589 39,000  Level Washington Center
Sat 04:28:36 PM 38.0833 -75.7581 36° Northeast 512 589 39,000  Level Washington Center
Sat 04:29:34 PM 38.1961 -75.6500 37° Northeast 512 589 39,000  Level Washington Center
Sat 04:30:36 PM 38.3086 -75.5442 36° Northeast 507 583 39,000  Level Washington Center
Sat 04:31:35 PM 38.4358 -75.4697 25° Northeast 507 583 39,000  Level Washington Center
Sat 04:32:35 PM 38.5608 -75.4139 19° North 483 556 39,000  Level Washington Center
Sat 04:33:36 PM 38.6731 -75.2992 39° Northeast 496 571 39,000  Level Washington Center
Sat 04:34:34 PM 38.7853 -75.1817 39° Northeast 508 585 39,000  Level Washington Center
Sat 04:35:34 PM 38.8975 -75.0636 39° Northeast 513 590 39,000  Level Washington Center
Sat 04:36:35 PM 39.0094 -74.9425 40° Northeast 519 597 39,000  Level Washington Center
Sat 04:37:36 PM 39.1192 -74.8239 40° Northeast 519 597 39,000  Level Washington Center
Sat 04:38:34 PM 39.2331 -74.7019 40° Northeast 519 597 39,000 -50 Level Washington Center
Sat 04:39:35 PM 39.3425 -74.5825 40° Northeast 519 597 38,900  Descending Washington Center
Sat 04:40:36 PM 39.4622 -74.4492 41° Northeast 519 597 39,000 50 Climbing Washington Center
Sat 04:41:36 PM 39.5672 -74.3344 40° Northeast 519 597 39,000  Level Washington Center
Sat 04:43:27 PM 39.7558 -74.1267 40° Northeast 497 572 39,000  Level Boston Center
Sat 04:44:27 PM 39.8617 -74.0158 39° Northeast 492 566 39,000  Level Boston Center
Sat 04:45:27 PM 39.9714 -73.9019 38° Northeast 492 566 39,000 -50 Level Boston Center
Sat 04:46:27 PM 40.0750 -73.7822 41° Northeast 498 573 38,900  Descending Boston Center
Sat 04:47:27 PM 40.1933 -73.6569 39° Northeast 498 573 39,000 -750 Climbing Boston Center
Sat 04:48:27 PM 40.2900 -73.5528 39° Northeast 498 573 37,400 -2,400 Descending Boston Center
Sat 04:49:27 PM 40.4097 -73.4567 31° Northeast 493 567 34,200 -2,850 Descending Boston Center
Sat 04:50:27 PM 40.5211 -73.3600 33° Northeast 487 560 31,700 -2,450 Descending Boston Center
Sat 04:51:27 PM 40.6300 -73.2686 32° Northeast 476 548 29,300 -2,550 Descending Boston Center
Sat 04:52:27 PM 40.7453 -73.1797 30° Northeast 449 517 26,600 -3,000 Descending Boston Center
Sat 04:53:27 PM 40.8458 -73.0958 32° Northeast 435 501 23,300 -3,100 Descending Boston Center
Sat 04:54:27 PM 40.9486 -73.0089 33° Northeast 435 501 20,400 -2,400 Descending Boston Center
Sat 04:55:27 PM 41.0281 -72.9408 33° Northeast 430 495 18,500 -2,250 Descending Boston Center
Sat 04:56:27 PM 41.1325 -72.8506 33° Northeast 425 489 15,900 -2,809 Descending Boston Center
Sat 04:57:01 PM 41.1953 -72.7986 32° Northeast 397 457 14,100 -2,400 Descending Boston Center
Sat 04:57:27 PM 41.2225 -72.7711 37° Northeast 406 467 13,500 -2,361 Descending Boston Center
Sat 04:58:02 PM 41.2850 -72.7192 32° Northeast 385 443 11,700 -2,400 Descending Boston Center
Sat 04:58:27 PM 41.3164 -72.7136 North 371 427 11,100 -1,000 Descending Boston Center
Sat 04:59:02 PM 41.3725 -72.7472 336° Northwest 309 356 10,700 -700 Descending Boston Center
Sat 04:59:27 PM 41.4039 -72.7583 345° North 299 344 10,400 -984 Descending Boston Center
Sat 05:00:03 PM 41.4600 -72.7503 North 321 369 9,700 -1,200 Descending Boston Center
Sat 05:00:27 PM 41.4850 -72.7367 22° Northeast 304 350 9,200 -1,433 Descending Boston Center
Sat 05:01:10 PM 41.5519 -72.7036 20° North 326 375 8,100 -1,385 Descending Boston Center
Sat 05:02:11 PM 41.6353 -72.6650 19° North 323 372 6,800 -1,388 Descending Boston Center
Sat 05:03:11 PM 41.7103 -72.6264 21° North 301 346 5,300 -893 Descending Boston Center
Sat 05:04:12 PM 41.7958 -72.5906 17° North 298 343 5,000 -149 Descending Boston Center
Sat 05:05:12 PM 41.8753 -72.5544 19° North 298 343 5,000 -397 Level Boston Center
Sat 05:06:13 PM 41.9439 -72.4931 34° Northeast 296 341 4,200 -639 Descending Boston Center
Sat 05:07:14 PM 42.0064 -72.4344 35° Northeast 267 307 3,700 -843 Descending Boston Center
Sat 05:08:14 PM 42.0586 -72.4708 333° Northwest 223 257 2,500 -595 Descending Boston Center
Sat 05:09:15 PM 42.0564 -72.5294 267° West 164 189 2,500  Level Boston Center
Sat 05:10:16 PM 42.0253 -72.5742 227° Southwest 161 185 2,500 -545 Level Boston Center
Sat 05:11:16 PM 41.9939 -72.6161 225° Southwest 159 183 1,400 -942 Descending Boston Center
Sat 05:12:17 PM 41.9647 -72.6522 223° Southwest 142 163 600 -787 Descending Boston Center

Login

Don't have an account? Register now (free) for customized features, flight alerts, and more!